sensor_id;sensor_type;location;lat;lon;timestamp;temperature;humidity
7143;DHT22;3613;48.902;9.204;2022-09-01T00:01:26;14.70;99.90
7143;DHT22;3613;48.902;9.204;2022-09-01T00:03:57;14.60;99.90
7143;DHT22;3613;48.902;9.204;2022-09-01T00:06:28;14.60;99.90
7143;DHT22;3613;48.902;9.204;2022-09-01T00:08:56;14.60;99.90
7143;DHT22;3613;48.902;9.204;2022-09-01T00:11:24;14.60;99.90
7143;DHT22;3613;48.902;9.204;2022-09-01T00:13:51;14.60;99.90
7143;DHT22;3613;48.902;9.204;2022-09-01T00:16:18;14.60;99.90
7143;DHT22;3613;48.902;9.204;2022-09-01T00:18:45;14.60;99.90
7143;DHT22;3613;48.902;9.204;2022-09-01T00:21:14;14.50;99.90
7143;DHT22;3613;48.902;9.204;2022-09-01T00:23:42;14.50;99.90
7143;DHT22;3613;48.902;9.204;2022-09-01T00:26:08;14.60;99.90
7143;DHT22;3613;48.902;9.204;2022-09-01T00:28:37;14.50;99.90
7143;DHT22;3613;48.902;9.204;2022-09-01T00:31:07;14.50;99.90
7143;DHT22;3613;48.902;9.204;2022-09-01T00:33:35;14.60;99.90
7143;DHT22;3613;48.902;9.204;2022-09-01T00:36:02;14.50;99.90
7143;DHT22;3613;48.902;9.204;2022-09-01T00:38:29;14.50;99.90
7143;DHT22;3613;48.902;9.204;2022-09-01T00:40:55;14.50;99.90
7143;DHT22;3613;48.902;9.204;2022-09-01T00:46:08;14.50;99.90
7143;DHT22;3613;48.902;9.204;2022-09-01T00:48:37;14.40;99.90
7143;DHT22;3613;48.902;9.204;2022-09-01T00:51:03;14.40;99.90
7143;DHT22;3613;48.902;9.204;2022-09-01T00:53:33;14.40;99.90
7143;DHT22;3613;48.902;9.204;2022-09-01T00:56:00;14.40;99.90
7143;DHT22;3613;48.902;9.204;2022-09-01T00:58:26;14.40;99.90
7143;DHT22;3613;48.902;9.204;2022-09-01T01:00:55;14.40;99.90
7143;DHT22;3613;48.902;9.204;2022-09-01T01:03:25;14.30;99.90
7143;DHT22;3613;48.902;9.204;2022-09-01T01:05:56;14.30;99.90
7143;DHT22;3613;48.902;9.204;2022-09-01T01:08:26;14.20;99.90
7143;DHT22;3613;48.902;9.204;2022-09-01T01:11:13;14.20;99.90
7143;DHT22;3613;48.902;9.204;2022-09-01T01:14:04;14.20;99.90
7143;DHT22;3613;48.902;9.204;2022-09-01T01:16:38;14.20;99.90
7143;DHT22;3613;48.902;9.204;2022-09-01T01:19:22;14.10;99.90
7143;DHT22;3613;48.902;9.204;2022-09-01T01:22:12;14.10;99.90
7143;DHT22;3613;48.902;9.204;2022-09-01T01:25:01;14.00;99.90
7143;DHT22;3613;48.902;9.204;2022-09-01T01:27:32;14.10;99.90
7143;DHT22;3613;48.902;9.204;2022-09-01T01:30:04;13.90;99.90
7143;DHT22;3613;48.902;9.204;2022-09-01T01:32:32;14.00;99.90
7143;DHT22;3613;48.902;9.204;2022-09-01T01:34:57;14.00;99.90
7143;DHT22;3613;48.902;9.204;2022-09-01T01:37:28;13.90;99.90
7143;DHT22;3613;48.902;9.204;2022-09-01T01:39:53;13.90;99.90
7143;DHT22;3613;48.902;9.204;2022-09-01T01:42:19;13.90;99.90
7143;DHT22;3613;48.902;9.204;2022-09-01T01:44:47;13.80;99.90
7143;DHT22;3613;48.902;9.204;2022-09-01T01:47:14;13.80;99.90
7143;DHT22;3613;48.902;9.204;2022-09-01T01:49:42;13.80;99.90
7143;DHT22;3613;48.902;9.204;2022-09-01T01:52:09;13.70;99.90
7143;DHT22;3613;48.902;9.204;2022-09-01T01:54:36;13.70;99.90
7143;DHT22;3613;48.902;9.204;2022-09-01T01:57:03;13.70;99.90
7143;DHT22;3613;48.902;9.204;2022-09-01T01:59:29;13.60;99.90
7143;DHT22;3613;48.902;9.204;2022-09-01T02:01:57;13.50;99.90
7143;DHT22;3613;48.902;9.204;2022-09-01T02:04:28;13.50;99.90
7143;DHT22;3613;48.902;9.204;2022-09-01T02:06:59;13.50;99.90
7143;DHT22;3613;48.902;9.204;2022-09-01T02:09:25;13.50;99.90
7143;DHT22;3613;48.902;9.204;2022-09-01T02:11:53;13.40;99.90
7143;DHT22;3613;48.902;9.204;2022-09-01T02:14:24;13.40;99.90
7143;DHT22;3613;48.902;9.204;2022-09-01T02:16:50;13.40;99.90
7143;DHT22;3613;48.902;9.204;2022-09-01T02:19:20;13.40;99.90
7143;DHT22;3613;48.902;9.204;2022-09-01T02:21:48;13.30;99.90
7143;DHT22;3613;48.902;9.204;2022-09-01T02:24:19;13.40;99.90
7143;DHT22;3613;48.902;9.204;2022-09-01T02:26:44;13.30;99.90
7143;DHT22;3613;48.902;9.204;2022-09-01T02:29:17;13.30;99.90
7143;DHT22;3613;48.902;9.204;2022-09-01T02:31:51;13.30;99.90
7143;DHT22;3613;48.902;9.204;2022-09-01T02:34:19;13.20;99.90
7143;DHT22;3613;48.902;9.204;2022-09-01T02:36:50;13.20;99.90
7143;DHT22;3613;48.902;9.204;2022-09-01T02:39:17;13.20;99.90
7143;DHT22;3613;48.902;9.204;2022-09-01T02:41:44;13.20;99.90
7143;DHT22;3613;48.902;9.204;2022-09-01T02:44:10;13.20;99.90
7143;DHT22;3613;48.902;9.204;2022-09-01T02:46:40;13.20;99.90
7143;DHT22;3613;48.902;9.204;2022-09-01T02:49:15;13.20;99.90
7143;DHT22;3613;48.902;9.204;2022-09-01T02:51:43;13.10;99.90
7143;DHT22;3613;48.902;9.204;2022-09-01T02:54:15;13.10;99.90
7143;DHT22;3613;48.902;9.204;2022-09-01T02:56:48;13.00;99.90
7143;DHT22;3613;48.902;9.204;2022-09-01T02:59:19;13.00;99.90
7143;DHT22;3613;48.902;9.204;2022-09-01T03:01:51;13.00;99.90
7143;DHT22;3613;48.902;9.204;2022-09-01T03:04:21;13.10;99.90
7143;DHT22;3613;48.902;9.204;2022-09-01T03:06:53;13.00;99.90
7143;DHT22;3613;48.902;9.204;2022-09-01T03:09:22;13.00;99.90
7143;DHT22;3613;48.902;9.204;2022-09-01T03:11:51;13.00;99.90
7143;DHT22;3613;48.902;9.204;2022-09-01T03:14:20;12.90;99.90
7143;DHT22;3613;48.902;9.204;2022-09-01T03:16:46;12.90;99.90
7143;DHT22;3613;48.902;9.204;2022-09-01T03:19:13;12.90;99.90
7143;DHT22;3613;48.902;9.204;2022-09-01T03:21:42;12.90;99.90
7143;DHT22;3613;48.902;9.204;2022-09-01T03:24:10;12.90;99.90
7143;DHT22;3613;48.902;9.204;2022-09-01T03:26:40;12.90;99.90
7143;DHT22;3613;48.902;9.204;2022-09-01T03:29:08;12.80;99.90
7143;DHT22;3613;48.902;9.204;2022-09-01T03:31:35;12.80;99.90
7143;DHT22;3613;48.902;9.204;2022-09-01T03:34:01;12.80;99.90
7143;DHT22;3613;48.902;9.204;2022-09-01T03:36:28;12.90;99.90
7143;DHT22;3613;48.902;9.204;2022-09-01T03:39:00;12.80;99.90
7143;DHT22;3613;48.902;9.204;2022-09-01T03:41:29;12.80;99.90
7143;DHT22;3613;48.902;9.204;2022-09-01T03:43:56;12.80;99.90
7143;DHT22;3613;48.902;9.204;2022-09-01T03:46:27;12.90;99.90
7143;DHT22;3613;48.902;9.204;2022-09-01T03:48:57;12.80;99.90
7143;DHT22;3613;48.902;9.204;2022-09-01T03:51:27;12.80;99.90
7143;DHT22;3613;48.902;9.204;2022-09-01T03:53:56;12.80;99.90
7143;DHT22;3613;48.902;9.204;2022-09-01T03:56:23;12.80;99.90
7143;DHT22;3613;48.902;9.204;2022-09-01T03:58:53;12.70;99.90
7143;DHT22;3613;48.902;9.204;2022-09-01T04:01:19;12.70;99.90
7143;DHT22;3613;48.902;9.204;2022-09-01T04:03:45;12.70;99.90
7143;DHT22;3613;48.902;9.204;2022-09-01T04:06:18;12.70;99.90
7143;DHT22;3613;48.902;9.204;2022-09-01T04:08:45;12.70;99.90
7143;DHT22;3613;48.902;9.204;2022-09-01T04:11:17;12.70;99.90
7143;DHT22;3613;48.902;9.204;2022-09-01T04:13:43;12.70;99.90
7143;DHT22;3613;48.902;9.204;2022-09-01T04:16:27;12.80;99.90
7143;DHT22;3613;48.902;9.204;2022-09-01T04:19:14;12.70;99.90
7143;DHT22;3613;48.902;9.204;2022-09-01T04:21:46;12.70;99.90
7143;DHT22;3613;48.902;9.204;2022-09-01T04:24:15;12.80;99.90
7143;DHT22;3613;48.902;9.204;2022-09-01T04:26:44;12.70;99.90
7143;DHT22;3613;48.902;9.204;2022-09-01T04:29:14;12.70;99.90
7143;DHT22;3613;48.902;9.204;2022-09-01T04:31:47;12.70;99.90
7143;DHT22;3613;48.902;9.204;2022-09-01T04:34:16;12.80;99.90
7143;DHT22;3613;48.902;9.204;2022-09-01T04:36:43;12.80;99.90
7143;DHT22;3613;48.902;9.204;2022-09-01T04:39:12;12.80;99.90
7143;DHT22;3613;48.902;9.204;2022-09-01T04:41:43;12.80;99.90
7143;DHT22;3613;48.902;9.204;2022-09-01T04:44:15;12.70;99.90
7143;DHT22;3613;48.902;9.204;2022-09-01T04:46:44;12.80;99.90
7143;DHT22;3613;48.902;9.204;2022-09-01T04:49:17;12.80;99.90
7143;DHT22;3613;48.902;9.204;2022-09-01T04:51:48;12.80;99.90
7143;DHT22;3613;48.902;9.204;2022-09-01T04:54:14;12.80;99.90
7143;DHT22;3613;48.902;9.204;2022-09-01T04:56:43;12.80;99.90
7143;DHT22;3613;48.902;9.204;2022-09-01T04:59:10;12.80;99.90
7143;DHT22;3613;48.902;9.204;2022-09-01T05:01:41;12.90;99.90
7143;DHT22;3613;48.902;9.204;2022-09-01T05:04:19;13.10;99.90
7143;DHT22;3613;48.902;9.204;2022-09-01T05:06:49;13.30;99.90
7143;DHT22;3613;48.902;9.204;2022-09-01T05:09:18;13.60;99.90
7143;DHT22;3613;48.902;9.204;2022-09-01T05:11:44;14.00;99.90
7143;DHT22;3613;48.902;9.204;2022-09-01T05:14:13;14.30;99.90
7143;DHT22;3613;48.902;9.204;2022-09-01T05:16:42;14.70;99.90
7143;DHT22;3613;48.902;9.204;2022-09-01T05:19:09;15.10;99.90
7143;DHT22;3613;48.902;9.204;2022-09-01T05:21:43;15.50;99.90
7143;DHT22;3613;48.902;9.204;2022-09-01T05:24:10;16.10;99.90
7143;DHT22;3613;48.902;9.204;2022-09-01T05:26:36;16.50;99.90
7143;DHT22;3613;48.902;9.204;2022-09-01T05:29:08;16.90;99.90
7143;DHT22;3613;48.902;9.204;2022-09-01T05:31:39;17.20;99.90
7143;DHT22;3613;48.902;9.204;2022-09-01T05:34:06;17.20;99.90
7143;DHT22;3613;48.902;9.204;2022-09-01T05:36:35;17.50;99.90
7143;DHT22;3613;48.902;9.204;2022-09-01T05:39:03;17.80;99.90
7143;DHT22;3613;48.902;9.204;2022-09-01T05:41:29;18.20;99.90
7143;DHT22;3613;48.902;9.204;2022-09-01T05:43:55;18.60;99.90
7143;DHT22;3613;48.902;9.204;2022-09-01T05:46:24;18.70;99.90
7143;DHT22;3613;48.902;9.204;2022-09-01T05:48:52;19.30;99.90
7143;DHT22;3613;48.902;9.204;2022-09-01T05:51:23;19.80;99.90
7143;DHT22;3613;48.902;9.204;2022-09-01T05:53:53;20.10;99.90
7143;DHT22;3613;48.902;9.204;2022-09-01T05:56:27;20.30;99.90
7143;DHT22;3613;48.902;9.204;2022-09-01T05:58:54;20.90;99.90
7143;DHT22;3613;48.902;9.204;2022-09-01T06:01:26;21.20;99.90
7143;DHT22;3613;48.902;9.204;2022-09-01T06:03:54;21.70;99.90
7143;DHT22;3613;48.902;9.204;2022-09-01T06:06:25;22.40;99.90
7143;DHT22;3613;48.902;9.204;2022-09-01T06:08:54;23.10;99.90
7143;DHT22;3613;48.902;9.204;2022-09-01T06:11:25;23.80;99.90
7143;DHT22;3613;48.902;9.204;2022-09-01T06:13:52;23.90;99.90
7143;DHT22;3613;48.902;9.204;2022-09-01T06:16:22;24.10;99.90
7143;DHT22;3613;48.902;9.204;2022-09-01T06:18:50;24.30;99.90
7143;DHT22;3613;48.902;9.204;2022-09-01T06:21:20;23.90;99.90
7143;DHT22;3613;48.902;9.204;2022-09-01T06:23:49;23.90;99.90
7143;DHT22;3613;48.902;9.204;2022-09-01T06:28:59;24.40;99.90
7143;DHT22;3613;48.902;9.204;2022-09-01T06:31:32;24.70;99.90
7143;DHT22;3613;48.902;9.204;2022-09-01T06:34:05;25.30;99.90
7143;DHT22;3613;48.902;9.204;2022-09-01T06:36:37;25.70;99.90
7143;DHT22;3613;48.902;9.204;2022-09-01T06:39:05;26.20;99.90
7143;DHT22;3613;48.902;9.204;2022-09-01T06:41:31;26.80;99.90
7143;DHT22;3613;48.902;9.204;2022-09-01T06:44:01;26.90;99.90
7143;DHT22;3613;48.902;9.204;2022-09-01T06:46:29;26.80;99.90
7143;DHT22;3613;48.902;9.204;2022-09-01T06:48:58;27.10;99.90
7143;DHT22;3613;48.902;9.204;2022-09-01T06:51:27;27.50;99.90
7143;DHT22;3613;48.902;9.204;2022-09-01T06:53:56;27.80;99.90
7143;DHT22;3613;48.902;9.204;2022-09-01T06:56:26;27.30;99.90
7143;DHT22;3613;48.902;9.204;2022-09-01T06:58:59;27.60;99.90
7143;DHT22;3613;48.902;9.204;2022-09-01T07:01:26;27.30;99.90
7143;DHT22;3613;48.902;9.204;2022-09-01T07:03:53;26.70;99.90
7143;DHT22;3613;48.902;9.204;2022-09-01T07:06:20;26.60;99.90
7143;DHT22;3613;48.902;9.204;2022-09-01T07:08:56;25.80;99.90
7143;DHT22;3613;48.902;9.204;2022-09-01T07:11:25;25.40;99.90
7143;DHT22;3613;48.902;9.204;2022-09-01T07:13:57;25.60;99.90
7143;DHT22;3613;48.902;9.204;2022-09-01T07:16:27;25.80;99.90
7143;DHT22;3613;48.902;9.204;2022-09-01T07:18:55;25.40;99.90
7143;DHT22;3613;48.902;9.204;2022-09-01T07:21:26;24.30;99.90
7143;DHT22;3613;48.902;9.204;2022-09-01T07:23:53;23.20;99.90
7143;DHT22;3613;48.902;9.204;2022-09-01T07:26:22;22.00;99.90
7143;DHT22;3613;48.902;9.204;2022-09-01T07:28:49;21.70;99.90
7143;DHT22;3613;48.902;9.204;2022-09-01T07:31:22;21.70;99.90
7143;DHT22;3613;48.902;9.204;2022-09-01T07:33:50;21.90;99.90
7143;DHT22;3613;48.902;9.204;2022-09-01T07:36:17;22.60;99.90
7143;DHT22;3613;48.902;9.204;2022-09-01T07:38:46;23.70;99.90
7143;DHT22;3613;48.902;9.204;2022-09-01T07:41:23;24.90;99.90
7143;DHT22;3613;48.902;9.204;2022-09-01T07:43:51;25.60;99.90
7143;DHT22;3613;48.902;9.204;2022-09-01T07:46:20;26.10;99.90
7143;DHT22;3613;48.902;9.204;2022-09-01T07:48:47;26.70;99.90
7143;DHT22;3613;48.902;9.204;2022-09-01T07:51:16;26.90;99.90
7143;DHT22;3613;48.902;9.204;2022-09-01T07:53:45;27.00;99.90
7143;DHT22;3613;48.902;9.204;2022-09-01T07:56:13;26.90;99.90
7143;DHT22;3613;48.902;9.204;2022-09-01T07:58:40;26.40;99.90
7143;DHT22;3613;48.902;9.204;2022-09-01T08:01:13;26.20;99.90
7143;DHT22;3613;48.902;9.204;2022-09-01T08:03:40;25.40;99.90
7143;DHT22;3613;48.902;9.204;2022-09-01T08:06:13;25.40;99.90
7143;DHT22;3613;48.902;9.204;2022-09-01T08:08:44;24.90;99.90
7143;DHT22;3613;48.902;9.204;2022-09-01T08:11:21;24.40;99.90
7143;DHT22;3613;48.902;9.204;2022-09-01T08:13:52;23.90;99.90
7143;DHT22;3613;48.902;9.204;2022-09-01T08:16:19;23.40;99.90
7143;DHT22;3613;48.902;9.204;2022-09-01T08:18:46;23.50;99.90
7143;DHT22;3613;48.902;9.204;2022-09-01T08:21:14;23.50;99.90
7143;DHT22;3613;48.902;9.204;2022-09-01T08:23:40;23.80;99.90
7143;DHT22;3613;48.902;9.204;2022-09-01T08:26:08;23.60;99.90
7143;DHT22;3613;48.902;9.204;2022-09-01T08:28:34;23.30;99.90
7143;DHT22;3613;48.902;9.204;2022-09-01T08:31:05;22.50;99.90
7143;DHT22;3613;48.902;9.204;2022-09-01T08:33:31;21.80;99.90
7143;DHT22;3613;48.902;9.204;2022-09-01T08:36:02;21.80;99.90
7143;DHT22;3613;48.902;9.204;2022-09-01T08:38:30;21.70;99.90
7143;DHT22;3613;48.902;9.204;2022-09-01T08:40:57;23.80;99.90
7143;DHT22;3613;48.902;9.204;2022-09-01T08:43:43;21.60;99.90
7143;DHT22;3613;48.902;9.204;2022-09-01T08:48:55;21.80;99.90
7143;DHT22;3613;48.902;9.204;2022-09-01T08:51:42;22.00;99.90
7143;DHT22;3613;48.902;9.204;2022-09-01T08:56:37;21.70;99.90
7143;DHT22;3613;48.902;9.204;2022-09-01T08:59:05;21.60;99.90
7143;DHT22;3613;48.902;9.204;2022-09-01T09:01:46;21.50;99.90
7143;DHT22;3613;48.902;9.204;2022-09-01T09:07:14;21.60;99.90
7143;DHT22;3613;48.902;9.204;2022-09-01T09:10:09;21.60;99.90
7143;DHT22;3613;48.902;9.204;2022-09-01T09:17:54;20.90;99.90
7143;DHT22;3613;48.902;9.204;2022-09-01T09:20:25;20.90;99.90
7143;DHT22;3613;48.902;9.204;2022-09-01T09:22:53;21.10;99.90
7143;DHT22;3613;48.902;9.204;2022-09-01T09:25:24;21.30;99.90
7143;DHT22;3613;48.902;9.204;2022-09-01T09:27:50;21.50;99.90
7143;DHT22;3613;48.902;9.204;2022-09-01T09:30:21;21.30;99.90
7143;DHT22;3613;48.902;9.204;2022-09-01T09:32:56;21.30;99.90
7143;DHT22;3613;48.902;9.204;2022-09-01T09:35:27;21.70;99.90
7143;DHT22;3613;48.902;9.204;2022-09-01T09:37:54;21.80;99.90
7143;DHT22;3613;48.902;9.204;2022-09-01T09:40:25;21.90;99.90
7143;DHT22;3613;48.902;9.204;2022-09-01T09:47:48;22.20;99.90
7143;DHT22;3613;48.902;9.204;2022-09-01T09:50:42;22.10;99.90
7143;DHT22;3613;48.902;9.204;2022-09-01T09:53:13;22.00;99.90
7143;DHT22;3613;48.902;9.204;2022-09-01T09:55:57;22.00;99.90
7143;DHT22;3613;48.902;9.204;2022-09-01T09:58:27;22.20;99.90
7143;DHT22;3613;48.902;9.204;2022-09-01T10:01:43;22.40;99.90
7143;DHT22;3613;48.902;9.204;2022-09-01T10:03:51;22.50;99.90
7143;DHT22;3613;48.902;9.204;2022-09-01T10:08:55;22.80;99.90
7143;DHT22;3613;48.902;9.204;2022-09-01T10:11:37;23.10;99.90
7143;DHT22;3613;48.902;9.204;2022-09-01T10:16:41;23.70;99.90
7143;DHT22;3613;48.902;9.204;2022-09-01T10:19:12;24.20;99.90
7143;DHT22;3613;48.902;9.204;2022-09-01T10:21:42;24.20;99.90
7143;DHT22;3613;48.902;9.204;2022-09-01T10:24:26;24.20;99.90
7143;DHT22;3613;48.902;9.204;2022-09-01T10:26:59;23.90;99.90
7143;DHT22;3613;48.902;9.204;2022-09-01T10:29:27;23.90;99.90
7143;DHT22;3613;48.902;9.204;2022-09-01T10:31:54;24.10;99.90
7143;DHT22;3613;48.902;9.204;2022-09-01T10:34:22;24.30;99.90
7143;DHT22;3613;48.902;9.204;2022-09-01T10:36:53;24.20;99.90
7143;DHT22;3613;48.902;9.204;2022-09-01T10:39:19;24.30;99.90
7143;DHT22;3613;48.902;9.204;2022-09-01T10:41:52;24.30;99.90
7143;DHT22;3613;48.902;9.204;2022-09-01T10:44:20;24.10;99.90
7143;DHT22;3613;48.902;9.204;2022-09-01T10:46:46;24.00;99.90
7143;DHT22;3613;48.902;9.204;2022-09-01T10:51:58;24.40;99.90
7143;DHT22;3613;48.902;9.204;2022-09-01T10:57:35;24.20;99.90
7143;DHT22;3613;48.902;9.204;2022-09-01T11:06:06;23.60;99.90
7143;DHT22;3613;48.902;9.204;2022-09-01T11:11:00;24.70;99.90
7143;DHT22;3613;48.902;9.204;2022-09-01T11:13:38;24.90;99.90
7143;DHT22;3613;48.902;9.204;2022-09-01T11:18:50;25.50;99.90
7143;DHT22;3613;48.902;9.204;2022-09-01T11:21:27;25.40;99.90
7143;DHT22;3613;48.902;9.204;2022-09-01T11:26:56;24.60;99.90
7143;DHT22;3613;48.902;9.204;2022-09-01T11:29:50;25.20;99.90
7143;DHT22;3613;48.902;9.204;2022-09-01T11:32:18;25.80;99.90
7143;DHT22;3613;48.902;9.204;2022-09-01T11:34:45;26.60;99.90
7143;DHT22;3613;48.902;9.204;2022-09-01T11:37:20;27.40;99.90
7143;DHT22;3613;48.902;9.204;2022-09-01T11:39:48;27.90;99.90
7143;DHT22;3613;48.902;9.204;2022-09-01T11:42:21;28.20;99.00
7143;DHT22;3613;48.902;9.204;2022-09-01T11:47:44;29.10;96.30
7143;DHT22;3613;48.902;9.204;2022-09-01T11:50:25;28.80;95.90
7143;DHT22;3613;48.902;9.204;2022-09-01T11:58:03;28.80;94.50
7143;DHT22;3613;48.902;9.204;2022-09-01T12:00:32;29.20;95.30
7143;DHT22;3613;48.902;9.204;2022-09-01T12:05:52;29.40;93.30
7143;DHT22;3613;48.902;9.204;2022-09-01T12:08:24;29.50;93.00
7143;DHT22;3613;48.902;9.204;2022-09-01T12:11:04;30.00;92.80
7143;DHT22;3613;48.902;9.204;2022-09-01T12:13:33;30.90;91.40
7143;DHT22;3613;48.902;9.204;2022-09-01T12:16:06;31.10;90.00
7143;DHT22;3613;48.902;9.204;2022-09-01T12:18:42;30.10;90.30
7143;DHT22;3613;48.902;9.204;2022-09-01T12:21:19;29.80;90.60
7143;DHT22;3613;48.902;9.204;2022-09-01T12:23:47;28.30;92.20
7143;DHT22;3613;48.902;9.204;2022-09-01T12:26:28;26.70;94.90
7143;DHT22;3613;48.902;9.204;2022-09-01T12:28:54;26.50;95.80
7143;DHT22;3613;48.902;9.204;2022-09-01T12:31:24;25.70;96.50
7143;DHT22;3613;48.902;9.204;2022-09-01T12:33:51;25.30;98.80
7143;DHT22;3613;48.902;9.204;2022-09-01T12:38:50;25.10;99.40
7143;DHT22;3613;48.902;9.204;2022-09-01T12:49:58;30.30;87.60
7143;DHT22;3613;48.902;9.204;2022-09-01T12:52:27;30.10;86.20
7143;DHT22;3613;48.902;9.204;2022-09-01T12:57:39;30.20;87.70
7143;DHT22;3613;48.902;9.204;2022-09-01T13:02:40;30.30;89.60
7143;DHT22;3613;48.902;9.204;2022-09-01T13:08:01;30.40;87.70
7143;DHT22;3613;48.902;9.204;2022-09-01T13:10:32;30.60;87.50
7143;DHT22;3613;48.902;9.204;2022-09-01T13:12:58;30.80;87.00
7143;DHT22;3613;48.902;9.204;2022-09-01T13:15:25;30.80;86.10
7143;DHT22;3613;48.902;9.204;2022-09-01T13:17:53;30.10;86.70
7143;DHT22;3613;48.902;9.204;2022-09-01T13:20:19;29.80;85.80
7143;DHT22;3613;48.902;9.204;2022-09-01T13:22:46;29.40;86.30
7143;DHT22;3613;48.902;9.204;2022-09-01T13:25:17;29.50;86.70
7143;DHT22;3613;48.902;9.204;2022-09-01T13:27:45;29.30;88.10
7143;DHT22;3613;48.902;9.204;2022-09-01T13:30:13;29.10;88.20
7143;DHT22;3613;48.902;9.204;2022-09-01T13:32:40;28.80;88.10
7143;DHT22;3613;48.902;9.204;2022-09-01T13:35:07;28.00;90.00
7143;DHT22;3613;48.902;9.204;2022-09-01T13:37:33;27.60;90.20
7143;DHT22;3613;48.902;9.204;2022-09-01T13:39:58;27.10;90.20
7143;DHT22;3613;48.902;9.204;2022-09-01T13:42:26;26.60;91.00
7143;DHT22;3613;48.902;9.204;2022-09-01T13:44:54;26.60;91.40
7143;DHT22;3613;48.902;9.204;2022-09-01T13:47:22;26.50;91.30
7143;DHT22;3613;48.902;9.204;2022-09-01T13:49:48;26.40;91.20
7143;DHT22;3613;48.902;9.204;2022-09-01T13:52:14;26.20;91.20
7143;DHT22;3613;48.902;9.204;2022-09-01T13:54:42;26.10;91.70
7143;DHT22;3613;48.902;9.204;2022-09-01T13:57:09;26.10;92.10
7143;DHT22;3613;48.902;9.204;2022-09-01T13:59:38;26.30;92.50
7143;DHT22;3613;48.902;9.204;2022-09-01T14:02:04;26.20;92.90
7143;DHT22;3613;48.902;9.204;2022-09-01T14:04:30;25.70;93.70
7143;DHT22;3613;48.902;9.204;2022-09-01T14:06:56;25.60;93.30
7143;DHT22;3613;48.902;9.204;2022-09-01T14:09:24;25.40;93.80
7143;DHT22;3613;48.902;9.204;2022-09-01T14:11:54;25.10;94.40
7143;DHT22;3613;48.902;9.204;2022-09-01T14:14:22;24.80;95.10
7143;DHT22;3613;48.902;9.204;2022-09-01T14:16:48;24.60;95.80
7143;DHT22;3613;48.902;9.204;2022-09-01T14:19:16;24.50;96.20
7143;DHT22;3613;48.902;9.204;2022-09-01T14:21:42;24.50;96.10
7143;DHT22;3613;48.902;9.204;2022-09-01T14:24:11;24.50;95.70
7143;DHT22;3613;48.902;9.204;2022-09-01T14:26:37;24.30;94.90
7143;DHT22;3613;48.902;9.204;2022-09-01T14:29:04;24.20;97.20
7143;DHT22;3613;48.902;9.204;2022-09-01T14:31:30;24.20;98.20
7143;DHT22;3613;48.902;9.204;2022-09-01T14:33:56;24.30;98.50
7143;DHT22;3613;48.902;9.204;2022-09-01T14:36:26;24.30;98.70
7143;DHT22;3613;48.902;9.204;2022-09-01T14:38:52;24.60;98.00
7143;DHT22;3613;48.902;9.204;2022-09-01T14:41:23;24.60;97.70
7143;DHT22;3613;48.902;9.204;2022-09-01T14:43:54;24.60;97.60
7143;DHT22;3613;48.902;9.204;2022-09-01T14:46:23;24.60;97.10
7143;DHT22;3613;48.902;9.204;2022-09-01T14:48:53;24.60;97.70
7143;DHT22;3613;48.902;9.204;2022-09-01T14:51:26;24.60;97.10
7143;DHT22;3613;48.902;9.204;2022-09-01T14:53:53;24.40;98.60
7143;DHT22;3613;48.902;9.204;2022-09-01T14:56:20;24.40;98.30
7143;DHT22;3613;48.902;9.204;2022-09-01T14:58:47;24.50;97.80
7143;DHT22;3613;48.902;9.204;2022-09-01T15:01:16;24.50;97.50
7143;DHT22;3613;48.902;9.204;2022-09-01T15:03:42;24.60;97.10
7143;DHT22;3613;48.902;9.204;2022-09-01T15:06:14;24.60;97.10
7143;DHT22;3613;48.902;9.204;2022-09-01T15:08:41;24.40;97.40
7143;DHT22;3613;48.902;9.204;2022-09-01T15:11:17;24.10;97.90
7143;DHT22;3613;48.902;9.204;2022-09-01T15:13:48;24.10;97.70
7143;DHT22;3613;48.902;9.204;2022-09-01T15:16:23;24.20;97.80
7143;DHT22;3613;48.902;9.204;2022-09-01T15:18:50;24.20;97.70
7143;DHT22;3613;48.902;9.204;2022-09-01T15:21:18;24.30;97.50
7143;DHT22;3613;48.902;9.204;2022-09-01T15:23:47;24.40;98.10
7143;DHT22;3613;48.902;9.204;2022-09-01T15:26:17;24.60;97.90
7143;DHT22;3613;48.902;9.204;2022-09-01T15:28:44;24.80;96.70
7143;DHT22;3613;48.902;9.204;2022-09-01T15:31:13;25.10;96.60
7143;DHT22;3613;48.902;9.204;2022-09-01T15:33:39;25.10;97.40
7143;DHT22;3613;48.902;9.204;2022-09-01T15:36:06;25.20;96.60
7143;DHT22;3613;48.902;9.204;2022-09-01T15:38:35;25.10;95.50
7143;DHT22;3613;48.902;9.204;2022-09-01T15:41:01;25.00;94.90
7143;DHT22;3613;48.902;9.204;2022-09-01T15:43:32;24.70;95.10
7143;DHT22;3613;48.902;9.204;2022-09-01T15:46:03;24.60;95.20
7143;DHT22;3613;48.902;9.204;2022-09-01T15:48:31;24.40;96.30
7143;DHT22;3613;48.902;9.204;2022-09-01T15:53:50;24.30;97.70
7143;DHT22;3613;48.902;9.204;2022-09-01T15:56:16;24.20;98.70
7143;DHT22;3613;48.902;9.204;2022-09-01T15:58:43;24.20;98.50
7143;DHT22;3613;48.902;9.204;2022-09-01T16:01:11;24.30;98.90
7143;DHT22;3613;48.902;9.204;2022-09-01T16:03:39;24.30;98.70
7143;DHT22;3613;48.902;9.204;2022-09-01T16:06:06;24.20;97.70
7143;DHT22;3613;48.902;9.204;2022-09-01T16:08:32;24.10;96.60
7143;DHT22;3613;48.902;9.204;2022-09-01T16:10:58;24.00;96.60
7143;DHT22;3613;48.902;9.204;2022-09-01T16:13:26;24.00;96.70
7143;DHT22;3613;48.902;9.204;2022-09-01T16:19:00;23.90;97.10
7143;DHT22;3613;48.902;9.204;2022-09-01T16:21:50;23.90;97.50
7143;DHT22;3613;48.902;9.204;2022-09-01T16:24:18;23.80;97.70
7143;DHT22;3613;48.902;9.204;2022-09-01T16:26:46;23.80;97.90
7143;DHT22;3613;48.902;9.204;2022-09-01T16:29:32;23.70;98.30
7143;DHT22;3613;48.902;9.204;2022-09-01T16:31:58;23.80;98.80
7143;DHT22;3613;48.902;9.204;2022-09-01T16:34:26;23.60;98.90
7143;DHT22;3613;48.902;9.204;2022-09-01T16:37:00;23.50;99.40
7143;DHT22;3613;48.902;9.204;2022-09-01T16:42:34;23.20;99.90
7143;DHT22;3613;48.902;9.204;2022-09-01T16:51:03;23.00;99.90
7143;DHT22;3613;48.902;9.204;2022-09-01T16:54:01;22.70;99.90
7143;DHT22;3613;48.902;9.204;2022-09-01T16:56:38;22.50;99.90
7143;DHT22;3613;48.902;9.204;2022-09-01T16:59:23;22.40;99.90
7143;DHT22;3613;48.902;9.204;2022-09-01T17:05:02;22.10;99.90
7143;DHT22;3613;48.902;9.204;2022-09-01T17:10:31;21.90;99.90
7143;DHT22;3613;48.902;9.204;2022-09-01T17:13:32;21.80;99.90
7143;DHT22;3613;48.902;9.204;2022-09-01T17:18:59;21.60;99.90
7143;DHT22;3613;48.902;9.204;2022-09-01T17:21:41;21.40;99.90
7143;DHT22;3613;48.902;9.204;2022-09-01T17:24:28;21.40;99.90
7143;DHT22;3613;48.902;9.204;2022-09-01T17:26:58;21.30;99.90
7143;DHT22;3613;48.902;9.204;2022-09-01T17:34:55;21.00;99.90
7143;DHT22;3613;48.902;9.204;2022-09-01T17:46:02;20.80;99.90
7143;DHT22;3613;48.902;9.204;2022-09-01T17:48:37;20.70;99.90
7143;DHT22;3613;48.902;9.204;2022-09-01T17:54:18;20.50;99.90
7143;DHT22;3613;48.902;9.204;2022-09-01T17:57:04;20.40;99.90
7143;DHT22;3613;48.902;9.204;2022-09-01T18:00:04;20.30;99.90
7143;DHT22;3613;48.902;9.204;2022-09-01T18:05:09;20.10;99.90
7143;DHT22;3613;48.902;9.204;2022-09-01T18:13:23;19.90;99.90
7143;DHT22;3613;48.902;9.204;2022-09-01T18:15:52;19.90;99.90
7143;DHT22;3613;48.902;9.204;2022-09-01T18:20:59;19.80;99.90
7143;DHT22;3613;48.902;9.204;2022-09-01T18:23:29;19.70;99.90
7143;DHT22;3613;48.902;9.204;2022-09-01T18:26:02;19.60;99.90
7143;DHT22;3613;48.902;9.204;2022-09-01T18:28:29;19.50;99.90
7143;DHT22;3613;48.902;9.204;2022-09-01T18:39:59;19.30;99.90
7143;DHT22;3613;48.902;9.204;2022-09-01T18:51:23;18.90;99.90